createdAt,value
2016-02-11T00:00:21.912Z,72.47
2016-02-11T00:01:21.915Z,72.85
2016-02-11T00:02:21.917Z,72.85
2016-02-11T00:03:21.920Z,72.85
2016-02-11T00:04:21.907Z,72.28
2016-02-11T00:05:21.910Z,72.75
2016-02-11T00:06:21.897Z,72.28
2016-02-11T00:07:21.900Z,72.18
2016-02-11T00:08:21.902Z,72.28
2016-02-11T00:09:21.905Z,72.09
2016-02-11T00:10:21.908Z,72.18
2016-02-11T00:11:21.911Z,72.56
2016-02-11T00:12:21.882Z,72.47
2016-02-11T00:13:21.885Z,72.47
2016-02-11T00:14:21.890Z,72.28
2016-02-11T00:15:21.892Z,72.66
2016-02-11T00:16:21.880Z,72.37
2016-02-11T00:17:21.883Z,72.09
2016-02-11T00:18:21.886Z,71.61
2016-02-11T00:19:21.873Z,72.09
2016-02-11T00:20:21.876Z,71.71
2016-02-11T00:21:21.879Z,72.37
2016-02-11T00:22:21.882Z,72.47
2016-02-11T00:23:21.885Z,72.28
2016-02-11T00:24:21.888Z,72.28
2016-02-11T00:25:21.877Z,72.18
2016-02-11T00:26:21.864Z,72.37
2016-02-11T00:27:21.867Z,72.85
2016-02-11T00:28:21.870Z,72.37
2016-02-11T00:29:21.856Z,72.56
2016-02-11T00:30:21.864Z,72.94
2016-02-11T00:31:21.865Z,73.03
2016-02-11T00:32:21.854Z,73.13
2016-02-11T00:33:21.851Z,72.75
2016-02-11T00:34:21.858Z,73.5
2016-02-11T00:35:21.854Z,73.13
2016-02-11T00:36:21.857Z,73.32
2016-02-11T00:37:21.859Z,73.5
2016-02-11T00:38:21.847Z,73.69
2016-02-11T00:39:21.865Z,73.69
2016-02-11T00:40:21.853Z,73.79
2016-02-11T00:41:21.840Z,73.79
2016-02-11T00:42:21.860Z,73.69
2016-02-11T00:43:21.847Z,73.79
2016-02-11T00:44:21.833Z,74.55
2016-02-11T00:45:21.836Z,74.17
2016-02-11T00:46:21.854Z,74.45
2016-02-11T00:47:21.827Z,74.36
2016-02-11T00:48:21.829Z,74.26
2016-02-11T00:49:21.832Z,74.07
2016-02-11T00:50:21.835Z,74.26
2016-02-11T00:51:21.823Z,74.07
2016-02-11T00:52:21.826Z,74.07
2016-02-11T00:53:21.829Z,74.07
2016-02-11T00:54:21.831Z,74.26
2016-02-11T00:55:21.819Z,74.17
2016-02-11T00:56:21.822Z,74.17
2016-02-11T00:57:21.809Z,74.17
2016-02-11T00:58:21.812Z,74.36
2016-02-11T00:59:21.816Z,74.83
2016-02-11T01:00:21.819Z,74.17
2016-02-11T01:01:21.806Z,74.83
2016-02-11T01:02:21.808Z,74.74
2016-02-11T01:03:21.811Z,74.55
2016-02-11T01:04:21.657Z,74.36
2016-02-11T01:05:21.804Z,74.26
2016-02-11T01:06:21.792Z,74.36
2016-02-11T01:07:21.809Z,74.17
2016-02-11T01:08:21.798Z,74.45
2016-02-11T01:09:21.785Z,74.32
2016-02-11T01:10:21.803Z,74.79
2016-02-11T01:11:21.790Z,74.79
2016-02-11T01:12:21.793Z,74.79
2016-02-11T01:13:21.795Z,74.6
2016-02-11T01:14:21.798Z,74.41
2016-02-11T01:15:21.786Z,74.69
2016-02-11T01:16:21.789Z,75.17
2016-02-11T01:17:21.776Z,74.98
2016-02-11T01:18:21.794Z,74.88
2016-02-11T01:19:21.797Z,75.17
2016-02-11T01:20:21.784Z,75.07
2016-02-11T01:21:21.787Z,75.36
2016-02-11T01:22:21.774Z,75.36
2016-02-11T01:23:21.777Z,75.45
2016-02-11T01:24:21.764Z,75.45
2016-02-11T01:25:21.771Z,76.02
2016-02-11T01:26:21.634Z,75.83
2016-02-11T01:27:21.761Z,75.64
2016-02-11T01:28:21.764Z,75.64
2016-02-11T01:29:21.766Z,76.31
2016-02-11T01:30:21.753Z,76.12
2016-02-11T01:31:21.772Z,76.12
2016-02-11T01:32:21.758Z,76.4
2016-02-11T01:33:21.750Z,76.5
2016-02-11T01:34:21.767Z,76.21
2016-02-11T01:35:21.755Z,76.12
2016-02-11T01:36:21.743Z,76.31
2016-02-11T01:37:21.746Z,76.87
2016-02-11T01:38:21.760Z,76.5
2016-02-11T01:39:21.763Z,76.78
2016-02-11T01:40:21.734Z,77.06
2016-02-11T01:41:21.769Z,77.15
2016-02-11T01:42:21.755Z,76.78
2016-02-11T01:43:21.727Z,76.59
2016-02-11T01:44:21.744Z,77.25
2016-02-11T01:45:21.733Z,77.34
2016-02-11T01:46:21.719Z,77.25
2016-02-11T01:47:21.722Z,77.15
2016-02-11T01:48:21.740Z,77.63
2016-02-11T01:49:21.727Z,77.72
2016-02-11T01:50:21.714Z,77.53
2016-02-11T01:51:21.718Z,77.53
2016-02-11T01:52:21.720Z,77.63
2016-02-11T01:53:21.707Z,77.63
2016-02-11T01:54:21.725Z,77.39
2016-02-11T01:55:21.712Z,77.1
2016-02-11T01:56:21.716Z,77.1
2016-02-11T01:57:21.719Z,77.2
2016-02-11T01:58:21.722Z,77.2
2016-02-11T01:59:21.708Z,77.39
2016-02-11T02:00:21.695Z,77.39
2016-02-11T02:01:21.714Z,77.39
2016-02-11T02:02:21.702Z,76.63
2016-02-11T02:03:21.705Z,76.72
2016-02-11T02:04:21.692Z,76.82
2016-02-11T02:05:21.710Z,76.91
2016-02-11T02:06:21.697Z,77.1
2016-02-11T02:07:21.684Z,76.91
2016-02-11T02:08:21.687Z,76.82
2016-02-11T02:09:21.705Z,76.91
2016-02-11T02:10:21.677Z,76.44
2016-02-11T02:11:21.679Z,76.53
2016-02-11T02:12:21.682Z,76.53
2016-02-11T02:13:21.684Z,76.15
2016-02-11T02:14:21.671Z,76.34
2016-02-11T02:15:21.674Z,75.78
2016-02-11T02:16:21.677Z,75.96
2016-02-11T02:17:21.680Z,76.06
2016-02-11T02:18:21.668Z,75.49
2016-02-11T02:19:21.670Z,75.31
2016-02-11T02:20:21.673Z,75.4
2016-02-11T02:21:21.660Z,75.68
2016-02-11T02:22:21.663Z,75.31
2016-02-11T02:23:21.666Z,74.83
2016-02-11T02:24:21.669Z,74.93
2016-02-11T02:25:21.656Z,75.12
2016-02-11T02:26:21.658Z,74.93
2016-02-11T02:27:21.662Z,74.93
2016-02-11T02:28:21.650Z,74.83
2016-02-11T02:29:21.668Z,74.17
2016-02-11T02:30:21.640Z,74.36
2016-02-11T02:31:21.689Z,74.83
2016-02-11T02:32:21.645Z,74.83
2016-02-11T02:33:21.648Z,74.74
2016-02-11T02:34:21.651Z,74.74
2016-02-11T02:35:21.637Z,74.45
2016-02-11T02:36:21.640Z,74.26
2016-02-11T02:37:21.642Z,74.45
2016-02-11T02:38:21.645Z,74.45
2016-02-11T02:39:21.633Z,74.45
2016-02-11T02:40:21.636Z,74.26
2016-02-11T02:41:21.622Z,74.07
2016-02-11T02:42:21.640Z,74.17
2016-02-11T02:43:21.627Z,74.17
2016-02-11T02:44:21.630Z,74.55
2016-02-11T02:45:21.633Z,73.88
2016-02-11T02:46:21.620Z,73.6
2016-02-11T02:47:21.623Z,73.69
2016-02-11T02:48:21.625Z,73.88
2016-02-11T02:49:21.613Z,73.98
2016-02-11T02:50:21.630Z,73.69
2016-02-11T02:51:21.618Z,73.32
2016-02-11T02:52:21.620Z,73.69
2016-02-11T02:53:21.607Z,73.41
2016-02-11T02:54:21.613Z,73.22
2016-02-11T02:55:21.617Z,73.41
2016-02-11T02:56:21.604Z,73.41
2016-02-11T02:57:21.450Z,73.22
2016-02-11T02:58:21.594Z,73.41
2016-02-11T02:59:21.600Z,73.41
2016-02-11T03:00:21.603Z,73.41
2016-02-11T03:01:21.590Z,73.13
2016-02-11T03:02:21.609Z,73.32
2016-02-11T03:03:21.596Z,73.32
2016-02-11T03:04:21.589Z,73.13
2016-02-11T03:05:21.592Z,73.5
2016-02-11T03:06:21.581Z,73.79
2016-02-11T03:07:21.583Z,73.5
2016-02-11T03:08:21.586Z,73.69
2016-02-11T03:09:21.604Z,72.85
2016-02-11T03:10:21.575Z,73.41
2016-02-11T03:11:21.578Z,73.22
2016-02-11T03:12:21.581Z,72.88
2016-02-11T03:13:21.583Z,73.03
2016-02-11T03:14:21.571Z,72.75
2016-02-11T03:15:21.573Z,73.03
2016-02-11T03:16:21.577Z,72.88
2016-02-11T03:17:21.569Z,73.13
2016-02-11T03:18:21.572Z,73.03
2016-02-11T03:19:21.558Z,72.66
2016-02-11T03:20:21.562Z,73.07
2016-02-11T03:21:21.548Z,72.47
2016-02-11T03:22:21.552Z,72.97
2016-02-11T03:23:21.554Z,72.97
2016-02-11T03:24:21.560Z,73.03
2016-02-11T03:25:21.562Z,72.6
2016-02-11T03:26:21.550Z,72.88
2016-02-11T03:27:21.553Z,72.69
2016-02-11T03:28:21.571Z,72.97
2016-02-11T03:29:21.543Z,72.97
2016-02-11T03:30:21.546Z,72.85
2016-02-11T03:31:21.548Z,72.75
2016-02-11T03:32:21.551Z,72.85
2016-02-11T03:33:21.538Z,73.07
2016-02-11T03:34:21.557Z,72.88
2016-02-11T03:35:21.543Z,72.94
2016-02-11T03:36:21.531Z,72.97
2016-02-11T03:37:21.535Z,72.66
2016-02-11T03:38:21.522Z,72.94
2016-02-11T03:39:21.524Z,72.6
2016-02-11T03:40:21.526Z,72.78
2016-02-11T03:41:21.529Z,72.37
2016-02-11T03:42:21.533Z,72.09
2016-02-11T03:43:21.520Z,72.28
2016-02-11T03:44:21.523Z,72.18
2016-02-11T03:45:21.384Z,72.22
2016-02-11T03:46:21.512Z,72.22
2016-02-11T03:47:21.515Z,72.22
2016-02-11T03:48:21.518Z,72.31
2016-02-11T03:49:21.520Z,72.66
2016-02-11T03:50:21.507Z,72.56
2016-02-11T03:51:21.509Z,72.85
2016-02-11T03:52:21.497Z,72.85
2016-02-11T03:53:21.515Z,72.88
2016-02-11T03:54:21.503Z,72.88
2016-02-11T03:55:21.374Z,72.6
2016-02-11T03:56:21.502Z,72.41
2016-02-11T03:57:21.488Z,72.28
2016-02-11T03:58:21.492Z,72.41
2016-02-11T03:59:21.494Z,72.22
2016-02-11T04:00:21.497Z,72.28
2016-02-11T04:01:21.499Z,72.31
2016-02-11T04:02:21.488Z,72.56
2016-02-11T04:03:21.490Z,72.47
2016-02-11T04:04:21.493Z,72.69
2016-02-11T04:05:21.480Z,72.28
2016-02-11T04:06:21.483Z,72.41
2016-02-11T04:07:21.485Z,72.41
2016-02-11T04:08:21.490Z,72.22
2016-02-11T04:09:21.476Z,72.22
2016-02-11T04:10:21.479Z,72.22
2016-02-11T04:11:21.466Z,72.5
2016-02-11T04:12:21.469Z,72.41
2016-02-11T04:13:21.472Z,72.22
2016-02-11T04:14:21.461Z,72.6
2016-02-11T04:15:21.479Z,72.5
2016-02-11T04:16:21.466Z,72.5
2016-02-11T04:17:21.468Z,72.22
2016-02-11T04:18:21.471Z,72.5
2016-02-11T04:19:21.458Z,72.6
2016-02-11T04:20:21.461Z,72.31
2016-02-11T04:21:21.463Z,72.6
2016-02-11T04:22:21.452Z,72.41
2016-02-11T04:23:21.455Z,72.41
2016-02-11T04:24:21.457Z,72.41
2016-02-11T04:25:21.460Z,72.31
2016-02-11T04:26:21.463Z,72.31
2016-02-11T04:27:21.454Z,72.6
2016-02-11T04:28:21.473Z,72.85
2016-02-11T04:29:21.444Z,72.88
2016-02-11T04:30:21.446Z,72.85
2016-02-11T04:31:21.449Z,72.41
2016-02-11T04:32:21.437Z,72.6
2016-02-11T04:33:21.439Z,72.56
2016-02-11T04:34:21.427Z,72.41
2016-02-11T04:35:21.429Z,72.41
2016-02-11T04:36:21.432Z,72.5
2016-02-11T04:37:21.434Z,72.5
2016-02-11T04:38:21.420Z,72.88
2016-02-11T04:39:21.426Z,72.97
2016-02-11T04:40:21.429Z,72.6
2016-02-11T04:41:21.416Z,72.41
2016-02-11T04:42:21.419Z,72.41
2016-02-11T04:43:21.421Z,72.22
2016-02-11T04:44:21.408Z,72.5
2016-02-11T04:45:21.427Z,72.69
2016-02-11T04:46:21.414Z,72.12
2016-02-11T04:47:21.418Z,72.03
2016-02-11T04:48:21.405Z,71.84
2016-02-11T04:49:21.408Z,72.12
2016-02-11T04:50:21.410Z,72.22
2016-02-11T04:51:21.413Z,72.03
2016-02-11T04:52:21.415Z,71.74
2016-02-11T04:53:21.418Z,71.55
2016-02-11T04:54:21.406Z,71.46
2016-02-11T04:55:21.393Z,71.55
2016-02-11T04:56:21.396Z,71.74
2016-02-11T04:57:21.387Z,71.93
2016-02-11T04:58:21.405Z,71.93
2016-02-11T04:59:21.394Z,71.65
2016-02-11T05:00:21.397Z,71.55
2016-02-11T05:01:21.385Z,71.65
2016-02-11T05:02:21.387Z,71.55
2016-02-11T05:03:21.390Z,71.27
2016-02-11T05:04:21.237Z,71.46
2016-02-11T05:05:21.381Z,71.27
2016-02-11T05:06:21.383Z,70.7
2016-02-11T05:07:21.387Z,70.79
2016-02-11T05:08:21.374Z,70.79
2016-02-11T05:09:21.377Z,70.79
2016-02-11T05:10:21.380Z,70.79
2016-02-11T05:11:21.367Z,70.89
2016-02-11T05:12:21.369Z,70.89
2016-02-11T05:13:21.372Z,70.89
2016-02-11T05:14:21.374Z,70.61
2016-02-11T05:15:21.362Z,70.79
2016-02-11T05:16:21.364Z,70.79
2016-02-11T05:17:21.367Z,70.7
2016-02-11T05:18:21.354Z,70.51
2016-02-11T05:19:21.357Z,70.61
2016-02-11T05:20:21.359Z,70.32
2016-02-11T05:21:21.363Z,70.42
2016-02-11T05:22:21.349Z,70.32
2016-02-11T05:23:21.352Z,70.51
2016-02-11T05:24:21.354Z,70.51
2016-02-11T05:25:21.342Z,70.14
2016-02-11T05:26:21.354Z,70.14
2016-02-11T05:27:21.357Z,70.14
2016-02-11T05:28:21.344Z,70.42
2016-02-11T05:29:21.347Z,70.42
2016-02-11T05:30:21.333Z,70.51
2016-02-11T05:31:21.336Z,70.14
2016-02-11T05:32:21.339Z,70.14
2016-02-11T05:33:21.343Z,70.04
2016-02-11T05:34:21.329Z,70.14
2016-02-11T05:35:21.333Z,69.95
2016-02-11T05:36:21.335Z,70.04
2016-02-11T05:37:21.322Z,70.14
2016-02-11T05:38:21.340Z,70.14
2016-02-11T05:39:21.328Z,70.04
2016-02-11T05:40:21.331Z,70.14
2016-02-11T05:41:21.319Z,70.04
2016-02-11T05:42:21.321Z,70.23
2016-02-11T05:43:21.323Z,70.04
2016-02-11T05:44:21.326Z,70.14
2016-02-11T05:45:21.313Z,70.04
2016-02-11T05:46:21.332Z,70.04
2016-02-11T05:47:21.318Z,69.95
2016-02-11T05:48:21.306Z,70.14
2016-02-11T05:49:21.309Z,69.95
2016-02-11T05:50:21.313Z,70.14
2016-02-11T05:51:21.299Z,70.14
2016-02-11T05:52:21.302Z,70.14
2016-02-11T05:53:21.305Z,69.95
2016-02-11T05:54:21.296Z,69.95
2016-02-11T05:55:21.299Z,70.7
2016-02-11T05:56:21.302Z,70.61
2016-02-11T05:57:21.290Z,70.32
2016-02-11T05:58:21.294Z,70.32
2016-02-11T05:59:21.297Z,70.42
2016-02-11T06:00:21.300Z,70.42
2016-02-11T06:01:21.302Z,70.51
2016-02-11T06:02:21.289Z,70.42
2016-02-11T06:03:21.275Z,70.42
2016-02-11T06:04:21.294Z,70.32
2016-02-11T06:05:21.281Z,70.42
2016-02-11T06:06:21.300Z,70.42
2016-02-11T06:07:21.273Z,70.42
2016-02-11T06:08:21.276Z,70.42
2016-02-11T06:09:21.279Z,70.42
2016-02-11T06:10:21.282Z,70.42
2016-02-11T06:11:21.256Z,70.42
2016-02-11T06:12:21.244Z,70.51
2016-02-11T06:13:21.233Z,70.7
2016-02-11T06:14:21.206Z,70.51
2016-02-11T06:15:21.196Z,70.42
2016-02-11T06:16:21.194Z,70.79
2016-02-11T06:17:21.191Z,70.89
2016-02-11T06:18:21.190Z,70.79
2016-02-11T06:19:21.173Z,70.89
2016-02-11T06:20:21.170Z,70.79
2016-02-11T06:21:21.171Z,70.89
2016-02-11T06:22:21.156Z,70.79
2016-02-11T06:23:21.172Z,70.79
2016-02-11T06:24:21.142Z,70.42
2016-02-11T06:25:21.144Z,70.51
2016-02-11T06:26:21.147Z,70.61
2016-02-11T06:27:21.134Z,70.79
2016-02-11T06:28:21.136Z,70.29
2016-02-11T06:29:21.137Z,70.51
2016-02-11T06:30:21.140Z,70.86
2016-02-11T06:31:21.127Z,70.86
2016-02-11T06:32:21.129Z,70.98
2016-02-11T06:33:21.131Z,70.86
2016-02-11T06:34:21.134Z,70.89
2016-02-11T06:35:21.124Z,70.86
2016-02-11T06:36:21.126Z,70.98
2016-02-11T06:37:21.128Z,70.95
2016-02-11T06:38:21.115Z,70.98
2016-02-11T06:39:21.117Z,70.98
2016-02-11T06:40:21.121Z,70.79
2016-02-11T06:41:21.123Z,70.76
2016-02-11T06:42:21.110Z,70.98
2016-02-11T06:43:21.114Z,70.79
2016-02-11T06:44:21.117Z,70.7
2016-02-11T06:45:21.120Z,70.7
2016-02-11T06:46:21.122Z,71.04
2016-02-11T06:47:21.110Z,70.89
2016-02-11T06:48:21.094Z,71.04
2016-02-11T06:49:21.115Z,70.98
2016-02-11T06:50:21.099Z,70.89
2016-02-11T06:51:21.103Z,70.89
2016-02-11T06:52:21.106Z,70.89
2016-02-11T06:53:21.093Z,70.89
2016-02-11T06:54:21.118Z,70.89
2016-02-11T06:55:21.090Z,70.76
2016-02-11T06:56:21.092Z,70.98
2016-02-11T06:57:21.078Z,70.79
2016-02-11T06:58:21.082Z,70.79
2016-02-11T06:59:21.084Z,70.86
2016-02-11T07:00:21.073Z,70.98
2016-02-11T07:01:21.075Z,70.79
2016-02-11T07:02:21.078Z,70.98
2016-02-11T07:03:21.081Z,70.86
2016-02-11T07:04:21.068Z,70.86
2016-02-11T07:05:21.071Z,70.86
2016-02-11T07:06:21.074Z,71.33
2016-02-11T07:07:21.060Z,71.14
2016-02-11T07:08:21.063Z,71.33
2016-02-11T07:09:21.051Z,71.42
2016-02-11T07:10:21.070Z,71.42
2016-02-11T07:11:21.056Z,71.33
2016-02-11T07:12:21.059Z,71.23
2016-02-11T07:13:21.061Z,71.61
2016-02-11T07:14:21.050Z,71.9
2016-02-11T07:15:21.052Z,71.84
2016-02-11T07:16:21.055Z,71.61
2016-02-11T07:17:21.057Z,71.27
2016-02-11T07:18:21.044Z,71.27
2016-02-11T07:19:21.047Z,71.74
2016-02-11T07:20:21.049Z,71.93
2016-02-11T07:21:21.037Z,71.65
2016-02-11T07:22:21.040Z,71.27
2016-02-11T07:23:21.032Z,71.17
2016-02-11T07:24:21.050Z,70.98
2016-02-11T07:25:21.037Z,70.98
2016-02-11T07:26:21.040Z,70.93
2016-02-11T07:27:21.043Z,70.55
2016-02-11T07:28:21.029Z,70.07
2016-02-11T07:29:21.031Z,69.7
2016-02-11T07:30:21.035Z,69.89
2016-02-11T07:31:21.037Z,69.32
2016-02-11T07:32:21.025Z,69.13
2016-02-11T07:33:21.028Z,69.6
2016-02-11T07:34:21.031Z,68.56
2016-02-11T07:35:21.017Z,68.18
2016-02-11T07:36:21.020Z,67.74
2016-02-11T07:37:21.023Z,68.4
2016-02-11T07:38:21.025Z,67.55
2016-02-11T07:39:21.012Z,67.93
2016-02-11T07:40:21.015Z,67.46
2016-02-11T07:41:21.017Z,67.27
2016-02-11T07:42:21.020Z,66.8
2016-02-11T07:43:21.009Z,66.7
2016-02-11T07:44:21.011Z,66.22
2016-02-11T07:45:21.004Z,66.32
2016-02-11T07:46:21.007Z,66.22
2016-02-11T07:47:21.009Z,65.66
2016-02-11T07:48:21.012Z,65.56
2016-02-11T07:49:20.999Z,65.84
2016-02-11T07:50:21.002Z,65.66
2016-02-11T07:51:21.004Z,65.09
2016-02-11T07:52:21.006Z,64.81
2016-02-11T07:53:20.994Z,65
2016-02-11T07:54:20.999Z,64.93
2016-02-11T07:55:20.990Z,64.42
2016-02-11T07:56:20.992Z,64.23
2016-02-11T07:57:20.997Z,64.04
2016-02-11T07:58:20.984Z,64.08
2016-02-11T07:59:20.987Z,63.51
2016-02-11T08:00:20.989Z,63.6
2016-02-11T08:01:20.977Z,63.42
2016-02-11T08:02:20.980Z,62.94
2016-02-11T08:03:20.984Z,62.94
2016-02-11T08:04:20.986Z,62.94
2016-02-11T08:05:20.973Z,62.85
2016-02-11T08:06:20.975Z,62.94
2016-02-11T08:07:21.009Z,62.75
2016-02-11T08:08:20.980Z,62.66
2016-02-11T08:09:20.984Z,62.47
2016-02-11T08:10:20.970Z,61.8
2016-02-11T08:11:20.974Z,61.24
2016-02-11T08:12:20.977Z,61.05
2016-02-11T08:13:20.964Z,60.86
2016-02-11T08:14:20.966Z,60.86
2016-02-11T08:15:20.969Z,60.1
2016-02-11T08:16:20.972Z,60.19
2016-02-11T08:17:20.975Z,59.63
2016-02-11T08:18:20.961Z,59.81
2016-02-11T08:19:20.965Z,59.15
2016-02-11T08:20:20.952Z,59.66
2016-02-11T08:21:20.954Z,58.99
2016-02-11T08:22:20.958Z,58.7
2016-02-11T08:23:20.945Z,58.42
2016-02-11T08:24:20.947Z,57.95
2016-02-11T08:25:20.950Z,58.42
2016-02-11T08:26:20.953Z,58.14
2016-02-11T08:27:20.959Z,57.66
2016-02-11T08:28:20.945Z,58.04
2016-02-11T08:29:20.948Z,57.47
2016-02-11T08:30:20.951Z,57.28
2016-02-11T08:31:20.937Z,56.52
2016-02-11T08:32:20.940Z,56.71
2016-02-11T08:33:20.943Z,56.71
2016-02-11T08:34:20.946Z,56.34
2016-02-11T08:35:20.948Z,56.34
2016-02-11T08:36:20.936Z,56.52
2016-02-11T08:37:20.938Z,56.62
2016-02-11T08:38:20.941Z,56.43
2016-02-11T08:39:20.945Z,56.05
2016-02-11T08:40:20.931Z,56.43
2016-02-11T08:41:20.933Z,55.76
2016-02-11T08:42:20.936Z,56.05
2016-02-11T08:43:20.939Z,55.67
2016-02-11T08:44:20.927Z,55.6
2016-02-11T08:45:20.930Z,54.85
2016-02-11T08:46:20.932Z,55.13
2016-02-11T08:47:20.918Z,55.04
2016-02-11T08:48:20.937Z,54.66
2016-02-11T08:49:20.924Z,54.75
2016-02-11T08:50:20.943Z,54.46
2016-02-11T08:51:20.930Z,54.75
2016-02-11T08:52:20.932Z,54.94
2016-02-11T08:53:20.919Z,54.97
2016-02-11T08:54:20.922Z,54.02
2016-02-11T08:55:20.924Z,53.57
2016-02-11T08:56:20.912Z,52.14
2016-02-11T08:57:20.922Z,51.22
2016-02-11T08:58:20.924Z,50.18
2016-02-11T08:59:20.927Z,49.7
2016-02-11T09:00:20.915Z,49.25
2016-02-11T09:01:20.918Z,47.63
2016-02-11T09:02:20.921Z,47.18
2016-02-11T09:03:20.924Z,46.7
2016-02-11T09:04:20.910Z,46.23
2016-02-11T09:05:20.915Z,45.85
2016-02-11T09:06:20.917Z,44.54
2016-02-11T09:07:20.905Z,43.16
2016-02-11T09:08:20.907Z,41.17
2016-02-11T09:09:20.910Z,39.12
2016-02-11T09:10:20.913Z,36.75
2016-02-11T09:11:20.931Z,34.4
2016-02-11T09:12:20.902Z,32.71
2016-02-11T09:13:20.922Z,30.91
2016-02-11T09:14:20.909Z,29.19
2016-02-11T09:15:20.896Z,28.61
2016-02-11T09:16:20.915Z,28.33
2016-02-11T09:17:20.901Z,27.47
2016-02-11T09:18:20.920Z,26.6
2016-02-11T09:19:20.907Z,25.27
2016-02-11T09:20:20.913Z,24.33
2016-02-11T09:21:20.901Z,23.08
2016-02-11T09:22:20.904Z,22.14
2016-02-11T09:23:20.907Z,21.57
2016-02-11T09:24:20.909Z,20.62
2016-02-11T09:25:20.896Z,19.85
2016-02-11T09:26:20.898Z,19.1
2016-02-11T09:27:20.902Z,17.96
2016-02-11T09:28:20.904Z,17.59
2016-02-11T09:29:20.957Z,16.93
2016-02-11T09:30:20.888Z,16.45
2016-02-11T09:31:20.907Z,15.68
2016-02-11T09:32:20.893Z,15.11
2016-02-11T09:33:20.897Z,14.83
2016-02-11T09:34:20.885Z,14.44
2016-02-11T09:35:20.887Z,14.05
2016-02-11T09:36:20.905Z,13.48
2016-02-11T09:37:20.892Z,13.47
2016-02-11T09:38:20.894Z,13.09
2016-02-11T09:39:20.898Z,13.17
2016-02-11T09:40:20.884Z,13.08
2016-02-11T09:41:20.903Z,13.46
2016-02-11T09:42:20.890Z,13.37
2016-02-11T09:43:20.892Z,14.13
2016-02-11T09:44:20.895Z,14.8
2016-02-11T09:45:20.883Z,15.46
2016-02-11T09:46:20.885Z,16.6
2016-02-11T09:47:20.905Z,16.88
2016-02-11T09:48:20.893Z,17.82
2016-02-11T09:49:20.895Z,19.23
2016-02-11T09:50:20.883Z,20.94
2016-02-11T09:51:20.886Z,22.06
2016-02-11T09:52:20.889Z,23.48
2016-02-11T09:53:20.891Z,24.51
2016-02-11T09:54:20.878Z,25.73
2016-02-11T09:55:20.896Z,26.78
2016-02-11T09:56:20.883Z,27.72
2016-02-11T09:57:20.886Z,28.85
2016-02-11T09:58:20.889Z,29.79
2016-02-11T09:59:20.892Z,31.02
2016-02-11T10:00:20.894Z,31.96
2016-02-11T10:01:20.899Z,32.9
2016-02-11T10:02:20.886Z,33.65
2016-02-11T10:03:20.889Z,34.88
2016-02-11T10:04:20.892Z,35.54
2016-02-11T10:05:20.879Z,36.09
2016-02-11T10:06:20.881Z,37.23
2016-02-11T10:07:20.900Z,38.18
2016-02-11T10:08:20.886Z,38.18
2016-02-11T10:09:20.890Z,38.85
2016-02-11T10:10:20.876Z,39.23
2016-02-11T10:11:20.894Z,39.21
2016-02-11T10:12:20.882Z,39.49
2016-02-11T10:13:20.884Z,40.06
2016-02-11T10:14:20.887Z,40.63
2016-02-11T10:15:20.891Z,40.25
2016-02-11T10:16:20.893Z,40.72
2016-02-11T10:17:20.881Z,41.3
2016-02-11T10:18:20.899Z,41.49
2016-02-11T10:19:20.901Z,41.67
2016-02-11T10:20:20.903Z,41.77
2016-02-11T10:21:20.892Z,41.58
2016-02-11T10:22:20.894Z,41.49
2016-02-11T10:23:20.740Z,41.2
2016-02-11T10:24:20.900Z,41.39
2016-02-11T10:25:20.886Z,41.58
2016-02-11T10:26:20.889Z,41.86
2016-02-11T10:27:20.892Z,42.34
2016-02-11T10:28:20.894Z,42.43
2016-02-11T10:29:20.897Z,42.24
2016-02-11T10:30:20.900Z,41.96
2016-02-11T10:31:20.934Z,42.53
2016-02-11T10:32:20.891Z,42.91
2016-02-11T10:33:20.880Z,42.91
2016-02-11T10:34:20.882Z,42.63
2016-02-11T10:35:20.886Z,43.19
2016-02-11T10:36:20.889Z,42.72
2016-02-11T10:37:20.892Z,42.63
2016-02-11T10:38:20.894Z,42.72
2016-02-11T10:39:20.881Z,43.08
2016-02-11T10:40:20.900Z,42.6
2016-02-11T10:41:20.887Z,42.6
2016-02-11T10:42:20.890Z,42.51
2016-02-11T10:43:20.892Z,42.51
2016-02-11T10:44:20.880Z,42.41
2016-02-11T10:45:20.882Z,42.32
2016-02-11T10:46:20.885Z,42.98
2016-02-11T10:47:20.888Z,42.6
2016-02-11T10:48:20.890Z,43.08
2016-02-11T10:49:20.894Z,43.36
2016-02-11T10:50:20.896Z,44.12
2016-02-11T10:51:20.899Z,43.74
2016-02-11T10:52:20.889Z,44.12
2016-02-11T10:53:20.906Z,44.14
2016-02-11T10:54:20.895Z,44.12
2016-02-11T10:55:20.897Z,43.95
2016-02-11T10:56:20.884Z,44.24
2016-02-11T10:57:20.887Z,43.86
2016-02-11T10:58:20.891Z,43.1
2016-02-11T10:59:20.878Z,43.01
2016-02-11T11:00:20.881Z,42.43
2016-02-11T11:01:20.884Z,43.01
2016-02-11T11:02:20.902Z,42.91
2016-02-11T11:03:20.892Z,43.19
2016-02-11T11:04:20.894Z,43.1
2016-02-11T11:05:20.882Z,42.15
2016-02-11T11:06:20.885Z,41.96
2016-02-11T11:07:20.887Z,41.2
2016-02-11T11:08:20.890Z,40.82
2016-02-11T11:09:20.908Z,40.27
2016-02-11T11:10:20.895Z,40.56
2016-02-11T11:11:20.882Z,40.46
2016-02-11T11:12:20.885Z,40.17
2016-02-11T11:13:20.888Z,39.7
2016-02-11T11:14:20.891Z,39.42
2016-02-11T11:15:20.893Z,39.51
2016-02-11T11:16:20.895Z,39.42
2016-02-11T11:17:20.883Z,39.42
2016-02-11T11:18:20.886Z,39.42
2016-02-11T11:19:20.888Z,39.61
2016-02-11T11:20:20.891Z,39.32
2016-02-11T11:21:20.879Z,39.51
2016-02-11T11:22:20.897Z,39.23
2016-02-11T11:23:20.899Z,39.32
2016-02-11T11:24:20.887Z,39.23
2016-02-11T11:25:20.890Z,39.04
2016-02-11T11:26:20.890Z,39.42
2016-02-11T11:27:20.892Z,39.7
2016-02-11T11:28:20.895Z,39.79
2016-02-11T11:29:20.897Z,39.51
2016-02-11T11:30:20.884Z,40.08
2016-02-11T11:31:20.887Z,40.27
2016-02-11T11:32:20.889Z,39.79
2016-02-11T11:33:20.893Z,39.51
2016-02-11T11:34:20.892Z,39.04
2016-02-11T11:35:20.879Z,39.23
2016-02-11T11:36:20.883Z,39.23
2016-02-11T11:37:20.885Z,39.23
2016-02-11T11:38:20.887Z,39.42
2016-02-11T11:39:20.891Z,39.42
2016-02-11T11:40:20.893Z,39.42
2016-02-11T11:41:20.896Z,39.23
2016-02-11T11:42:20.882Z,39.04
2016-02-11T11:43:20.886Z,39.42
2016-02-11T11:44:20.888Z,39.04
2016-02-11T11:45:20.892Z,38.56
2016-02-11T11:46:20.894Z,38.56
2016-02-11T11:47:20.881Z,37.54
2016-02-11T11:48:20.900Z,38.1
2016-02-11T11:49:20.886Z,37.73
2016-02-11T11:50:20.952Z,37.06
2016-02-11T11:51:20.887Z,36.4
2016-02-11T11:52:20.891Z,36.77
2016-02-11T11:53:20.939Z,36.87
2016-02-11T11:54:20.900Z,37.63
2016-02-11T11:55:20.918Z,37.06
2016-02-11T11:56:20.890Z,36.77
2016-02-11T11:57:20.884Z,36.96
2016-02-11T11:58:20.887Z,36.94
2016-02-11T11:59:20.912Z,36.77
2016-02-11T12:00:21.028Z,36.76
2016-02-11T12:01:20.889Z,36.66
2016-02-11T12:02:20.923Z,36.96
2016-02-11T12:03:20.895Z,36.4
2016-02-11T12:04:20.898Z,36.49
2016-02-11T12:05:20.900Z,36.19
2016-02-11T12:06:20.888Z,36
2016-02-11T12:07:20.890Z,36.11
2016-02-11T12:08:20.893Z,35.61
2016-02-11T12:09:20.896Z,36.47
2016-02-11T12:10:20.883Z,36.76
2016-02-11T12:11:20.902Z,36.3
2016-02-11T12:12:20.888Z,36.28
2016-02-11T12:13:20.891Z,35.9
2016-02-11T12:14:20.893Z,36.09
2016-02-11T12:15:20.896Z,36.09
2016-02-11T12:16:20.899Z,35.63
2016-02-11T12:17:20.902Z,35.9
2016-02-11T12:18:20.889Z,35.35
2016-02-11T12:19:20.891Z,35.33
2016-02-11T12:20:20.910Z,35.35
2016-02-11T12:21:20.896Z,35.42
2016-02-11T12:22:20.915Z,35.14
2016-02-11T12:23:20.888Z,34.78
2016-02-11T12:24:20.892Z,34.97
2016-02-11T12:25:20.909Z,35.06
2016-02-11T12:26:20.897Z,34.5
2016-02-11T12:27:20.899Z,34.78
2016-02-11T12:28:20.888Z,34.57
2016-02-11T12:29:20.908Z,34.09
2016-02-11T12:30:20.895Z,33.91
2016-02-11T12:31:20.887Z,34.09
2016-02-11T12:32:20.906Z,34.29
2016-02-11T12:33:20.893Z,34
2016-02-11T12:34:20.896Z,34.38
2016-02-11T12:35:20.898Z,34.38
2016-02-11T12:36:20.901Z,34.29
2016-02-11T12:37:20.905Z,34.19
2016-02-11T12:38:20.892Z,33.81
2016-02-11T12:39:20.895Z,33.81
2016-02-11T12:40:20.898Z,33.34
2016-02-11T12:41:20.900Z,32.77
2016-02-11T12:42:20.966Z,32.57
2016-02-11T12:43:20.906Z,32.2
2016-02-11T12:44:20.893Z,32.2
2016-02-11T12:45:20.896Z,31.82
2016-02-11T12:46:20.899Z,31.15
2016-02-11T12:47:20.902Z,31.45
2016-02-11T12:48:20.920Z,31.55
2016-02-11T12:49:20.892Z,31.45
2016-02-11T12:50:20.895Z,32.01
2016-02-11T12:51:20.913Z,31.93
2016-02-11T12:52:20.900Z,32.21
2016-02-11T12:53:20.902Z,32.59
2016-02-11T12:54:20.891Z,32.78
2016-02-11T12:55:20.893Z,33.24